Time;durP1;ratioP1;P1;durP2;ratioP2;P2;SDS_P1;SDS_P2;PMS_P1;PMS_P2;Temp;Humidity;BMP_temperature;BMP_pressure;BME280_temperature;BME280_humidity;BME280_pressure;Samples;Min_cycle;Max_cycle;Signal;HPM_P1;HPM_P2
2022/11/23 00:00:33;;;;;;;14.02;9.05;;;;;;;7.41;100.00;99561.44;6280917;22;20016;-76
2022/11/23 00:02:59;;;;;;;12.55;8.90;;;;;;;7.43;100.00;99556.44;6254108;22;20103;-77
2022/11/23 00:05:27;;;;;;;16.50;8.90;;;;;;;7.43;100.00;99562.44;6280520;22;20012;-77
2022/11/23 00:07:54;;;;;;;15.27;9.30;;;;;;;7.44;100.00;99563.94;6254306;22;20016;-77
2022/11/23 00:10:21;;;;;;;13.95;9.18;;;;;;;7.44;100.00;99560.53;6280880;22;20086;-77
2022/11/23 00:12:48;;;;;;;17.48;9.68;;;;;;;7.46;100.00;99555.53;6281280;22;20091;-77
2022/11/23 00:15:14;;;;;;;15.02;9.60;;;;;;;7.46;100.00;99560.84;6281238;22;20398;-76
2022/11/23 00:17:41;;;;;;;16.38;9.43;;;;;;;7.47;100.00;99555.09;6280817;22;20047;-76
2022/11/23 00:20:08;;;;;;;12.55;9.68;;;;;;;7.47;100.00;99560.38;6280654;22;20012;-76
2022/11/23 00:22:34;;;;;;;15.73;9.85;;;;;;;7.48;100.00;99567.16;6281019;22;20095;-76
2022/11/23 00:25:01;;;;;;;13.23;9.98;;;;;;;7.48;100.00;99563.78;6281103;22;20040;-77
2022/11/23 00:27:27;;;;;;;18.98;11.30;;;;;;;7.50;100.00;99578.03;6280932;22;20493;-77
2022/11/23 00:29:54;;;;;;;21.48;10.77;;;;;;;7.50;100.00;99579.94;6281201;22;20505;-77
2022/11/23 00:32:20;;;;;;;16.23;11.43;;;;;;;7.50;100.00;99585.25;6252963;22;20425;-77
2022/11/23 00:34:47;;;;;;;15.80;10.18;;;;;;;7.52;100.00;99585.53;6253367;22;20016;-77
2022/11/23 00:37:13;;;;;;;20.90;10.95;;;;;;;7.53;100.00;99587.75;6253723;22;20046;-77
2022/11/23 00:39:40;;;;;;;18.92;11.13;;;;;;;7.53;100.00;99587.75;6280701;22;20020;-77
2022/11/23 00:42:06;;;;;;;18.17;11.85;;;;;;;7.54;100.00;99581.25;6280912;22;20048;-77
2022/11/23 00:44:32;;;;;;;24.23;12.27;;;;;;;7.56;100.00;99581.56;6280611;22;20020;-77
2022/11/23 00:46:59;;;;;;;17.55;11.65;;;;;;;7.56;100.00;99588.75;6253679;22;20111;-77
2022/11/23 00:49:26;;;;;;;19.80;12.50;;;;;;;7.57;100.00;99598.19;6252454;22;20020;-77
2022/11/23 00:51:52;;;;;;;17.35;11.38;;;;;;;7.58;100.00;99597.00;6280760;22;20074;-77
2022/11/23 00:54:19;;;;;;;21.17;12.48;;;;;;;7.58;100.00;99600.38;6253076;22;20071;-77
2022/11/23 00:56:45;;;;;;;18.75;11.95;;;;;;;7.59;100.00;99595.81;6281022;22;20020;-77
2022/11/23 00:59:12;;;;;;;19.40;12.07;;;;;;;7.59;100.00;99598.47;6282411;22;20032;-77
2022/11/23 01:01:38;;;;;;;18.27;11.50;;;;;;;7.60;100.00;99605.94;6281966;22;20078;-77
2022/11/23 01:04:07;;;;;;;19.75;11.90;;;;;;;7.60;100.00;99605.19;6254241;22;20043;-76
2022/11/23 01:06:39;;;;;;;18.35;11.93;;;;;;;7.59;100.00;99604.50;6281883;22;20012;-77
2022/11/23 01:09:14;;;;;;;22.35;12.00;;;;;;;7.60;100.00;99607.84;6282320;22;20019;-76
2022/11/23 01:11:41;;;;;;;18.92;11.98;;;;;;;7.60;100.00;99607.84;6254269;22;20074;-77
2022/11/23 01:14:08;;;;;;;19.55;11.68;;;;;;;7.61;100.00;99609.31;6282395;22;20501;-77
2022/11/23 01:16:39;;;;;;;16.88;12.15;;;;;;;7.61;100.00;99622.56;6254590;22;20020;-77
2022/11/23 01:19:18;;;;;;;21.10;12.60;;;;;;;7.61;100.00;99622.56;6282375;22;20016;-77
2022/11/23 01:21:47;;;;;;;16.25;11.95;;;;;;;7.61;100.00;99625.22;6255007;22;20030;-77
2022/11/23 02:40:30;;;;;;;10.10;6.35;;;;;;;7.53;100.00;99651.28;4745503;22;20024;-75
2022/11/23 02:42:57;;;;;;;13.73;6.60;;;;;;;7.53;100.00;99661.88;6281933;22;20465;-75
2022/11/23 02:45:55;;;;;;;11.35;6.60;;;;;;;7.52;100.00;99665.72;6281229;22;20008;-75
2022/11/23 02:48:23;;;;;;;17.77;7.30;;;;;;;7.51;100.00;99661.59;6281425;22;20012;-74
2022/11/23 02:50:50;;;;;;;11.02;7.38;;;;;;;7.50;100.00;99670.72;6281683;22;20078;-75
2022/11/23 02:53:17;;;;;;;13.25;7.53;;;;;;;7.51;100.00;99669.53;6281776;22;20012;-75
2022/11/23 02:55:44;;;;;;;15.15;8.30;;;;;;;7.51;100.00;99666.91;6281299;22;20024;-75
2022/11/23 02:58:10;;;;;;;17.80;8.35;;;;;;;7.49;100.00;99677.19;6254257;22;20474;-75
2022/11/23 03:00:37;;;;;;;13.23;8.23;;;;;;;7.50;100.00;99670.72;6280630;22;20421;-75
2022/11/23 03:03:04;;;;;;;11.63;7.63;;;;;;;7.49;100.00;99671.91;6254205;22;20480;-75
2022/11/23 03:05:32;;;;;;;13.98;7.93;;;;;;;7.50;100.00;99675.28;6253735;22;20108;-75
2022/11/23 03:08:03;;;;;;;15.07;7.43;;;;;;;7.49;100.00;99677.19;6254222;22;20022;-73
2022/11/23 03:10:30;;;;;;;15.07;7.97;;;;;;;7.49;100.00;99679.84;6253734;22;20502;-75
2022/11/23 03:12:57;;;;;;;10.90;7.00;;;;;;;7.49;100.00;99671.91;6253391;22;20022;-74
2022/11/23 03:15:28;;;;;;;7.60;6.90;;;;;;;7.49;100.00;99674.53;6253708;22;20023;-75
2022/11/23 03:17:56;;;;;;;13.45;7.30;;;;;;;7.49;100.00;99673.81;6253756;22;20058;-75
2022/11/23 03:20:24;;;;;;;10.80;6.80;;;;;;;7.47;100.00;99668.97;6253123;22;20079;-75
2022/11/23 03:22:52;;;;;;;9.63;6.90;;;;;;;7.46;100.00;99678.06;6253820;22;20040;-74
2022/11/23 03:25:21;;;;;;;9.73;7.00;;;;;;;7.46;100.00;99680.72;6253140;22;20023;-75
2022/11/23 03:27:51;;;;;;;11.20;7.22;;;;;;;7.46;100.00;99682.63;6253244;22;20026;-75
2022/11/23 03:30:17;;;;;;;14.40;7.10;;;;;;;7.44;100.00;99680.44;6253722;22;20600;-75
2022/11/23 03:32:44;;;;;;;10.93;6.75;;;;;;;7.43;100.00;99683.53;6254030;22;20020;-75
2022/11/23 03:35:10;;;;;;;12.40;6.30;;;;;;;7.41;100.00;99677.94;6253873;22;20077;-75
2022/11/23 03:37:56;;;;;;;7.28;6.13;;;;;;;7.42;100.00;99682.06;6253652;22;20027;-75
2022/11/23 03:40:23;;;;;;;11.48;6.25;;;;;;;7.40;100.00;99682.50;6253217;22;20031;-75
2022/11/23 03:43:11;;;;;;;9.55;6.20;;;;;;;7.39;100.00;99683.66;6253289;22;20449;-76
2022/11/23 03:45:37;;;;;;;8.73;6.18;;;;;;;7.40;100.00;99681.75;6253592;22;20493;-75
2022/11/23 03:48:04;;;;;;;13.35;6.25;;;;;;;7.39;100.00;99685.59;6253883;22;20021;-75
2022/11/23 03:50:31;;;;;;;10.93;5.90;;;;;;;7.39;100.00;99688.97;6253276;22;20082;-75
2022/11/23 03:52:58;;;;;;;8.32;6.03;;;;;;;7.38;100.00;99684.84;6253993;22;20016;-76
2022/11/23 03:55:25;;;;;;;6.32;5.65;;;;;;;7.37;100.00;99678.06;6253378;22;20024;-76
2022/11/23 03:57:58;;;;;;;9.98;6.30;;;;;;;7.38;100.00;99687.50;6253127;22;20020;-75
2022/11/23 04:00:30;;;;;;;10.90;6.15;;;;;;;7.38;100.00;99678.81;6253492;22;20016;-75
2022/11/23 04:02:57;;;;;;;11.95;5.47;;;;;;;7.39;100.00;99677.63;6253865;22;20403;-75
2022/11/23 04:06:01;;;;;;;12.57;5.35;;;;;;;7.39;100.00;99680.28;6280590;22;20024;-75
2022/11/23 04:08:40;;;;;;;12.55;5.20;;;;;;;7.40;100.00;99676.47;6280656;22;20103;-75
2022/11/23 04:11:12;;;;;;;9.60;5.25;;;;;;;7.39;100.00;99667.78;6253066;22;20021;-75
2022/11/23 04:13:41;;;;;;;7.25;5.28;;;;;;;7.40;100.00;99679.84;6228317;22;20413;-75
2022/11/23 04:16:08;;;;;;;6.82;5.32;;;;;;;7.40;100.00;99673.81;6228526;22;20020;-75
2022/11/23 04:18:36;;;;;;;7.82;5.40;;;;;;;7.41;100.00;99676.03;6253509;22;20092;-75
2022/11/23 04:21:03;;;;;;;7.90;4.70;;;;;;;7.40;100.00;99671.91;6253418;22;20038;-76
2022/11/23 04:23:29;;;;;;;9.00;5.03;;;;;;;7.42;100.00;99674.09;6280769;22;20012;-75
2022/11/23 04:25:56;;;;;;;9.75;5.20;;;;;;;7.42;100.00;99672.19;6253040;22;20450;-76
2022/11/23 04:28:23;;;;;;;7.63;4.82;;;;;;;7.43;100.00;99668.38;6253040;22;20060;-75
2022/11/23 04:30:51;;;;;;;7.88;4.18;;;;;;;7.44;100.00;99669.09;6253205;22;20025;-75
2022/11/23 04:33:18;;;;;;;7.82;5.22;;;;;;;7.44;100.00;99669.84;6254255;22;20095;-75
2022/11/23 04:35:44;;;;;;;5.32;4.50;;;;;;;7.43;100.00;99668.38;6254667;22;20074;-75
2022/11/23 04:38:11;;;;;;;7.47;5.20;;;;;;;7.43;100.00;99672.94;6254404;22;20023;-75
2022/11/23 04:40:37;;;;;;;7.88;4.68;;;;;;;7.41;100.00;99678.66;6280912;22;20047;-75
2022/11/23 04:43:06;;;;;;;7.78;4.47;;;;;;;7.42;100.00;99674.84;6254603;22;20016;-75
2022/11/23 04:45:38;;;;;;;8.07;5.13;;;;;;;7.42;100.00;99671.47;6254429;22;20016;-75
2022/11/23 04:48:08;;;;;;;13.82;4.97;;;;;;;7.40;100.00;99674.53;6254700;22;20020;-75
2022/11/23 04:50:36;;;;;;;11.63;5.03;;;;;;;7.40;100.00;99677.19;6254291;22;20030;-75
2022/11/23 04:53:07;;;;;;;11.10;5.13;;;;;;;7.40;100.00;99676.47;6254937;22;20016;-75
2022/11/23 04:55:40;;;;;;;9.68;4.97;;;;;;;7.38;100.00;99676.91;6253695;22;20445;-75
2022/11/23 04:58:06;;;;;;;9.60;4.97;;;;;;;7.37;100.00;99678.06;6254624;22;20024;-75
2022/11/23 05:00:33;;;;;;;9.70;4.72;;;;;;;7.36;100.00;99680.00;6254305;22;20063;-75
2022/11/23 05:03:02;;;;;;;9.35;4.80;;;;;;;7.37;100.00;99675.44;6254512;22;20103;-75
2022/11/23 05:05:37;;;;;;;12.23;4.70;;;;;;;7.38;100.00;99676.16;6254555;22;20027;-75
2022/11/23 05:08:04;;;;;;;10.05;4.75;;;;;;;7.35;100.00;99673.22;6254446;22;20016;-75
2022/11/23 05:10:43;;;;;;;9.48;5.35;;;;;;;7.30;100.00;99675.72;6254205;22;20047;-75
2022/11/23 05:13:10;;;;;;;10.20;5.22;;;;;;;7.24;100.00;99670.28;6254680;22;20021;-75
2022/11/23 05:15:36;;;;;;;9.30;5.20;;;;;;;7.19;100.00;99664.88;6282025;22;20070;-76
2022/11/23 05:18:09;;;;;;;10.77;4.95;;;;;;;7.14;100.00;99665.44;6254464;22;20048;-75
2022/11/23 05:20:37;;;;;;;13.23;4.95;;;;;;;7.10;100.00;99660.31;6254059;22;20029;-75
2022/11/23 05:23:04;;;;;;;13.85;4.85;;;;;;;7.10;100.00;99665.59;6282029;22;20372;-75
2022/11/23 05:25:32;;;;;;;11.32;4.70;;;;;;;7.10;100.00;99665.59;6253386;22;20046;-75
2022/11/23 05:28:02;;;;;;;10.18;4.35;;;;;;;7.12;100.00;99673.09;6281979;22;20066;-75
2022/11/23 05:30:49;;;;;;;11.65;4.00;;;;;;;7.13;100.00;99675.31;6282348;22;20016;-76
2022/11/23 05:33:15;;;;;;;12.65;4.47;;;;;;;7.15;100.00;99680.16;6281976;22;20016;-75
2022/11/23 05:35:42;;;;;;;9.73;4.95;;;;;;;7.17;100.00;99677.81;6254257;22;20473;-75
2022/11/23 05:38:09;;;;;;;11.75;4.72;;;;;;;7.18;100.00;99685.31;6281317;22;20024;-75
2022/11/23 05:40:36;;;;;;;8.13;4.10;;;;;;;7.20;100.00;99676.91;6253919;22;20099;-75
2022/11/23 05:43:03;;;;;;;8.80;4.63;;;;;;;7.20;100.00;99682.19;6229246;22;20024;-75
2022/11/23 05:45:30;;;;;;;13.50;4.55;;;;;;;7.22;100.00;99687.78;6281975;22;20020;-75
2022/11/23 05:47:58;;;;;;;15.73;4.10;;;;;;;7.23;100.00;99691.91;6254365;22;20051;-75
2022/11/23 05:50:44;;;;;;;8.98;4.40;;;;;;;7.25;100.00;99692.19;6254583;22;20377;-75
2022/11/23 05:53:42;;;;;;;8.80;4.47;;;;;;;7.27;100.00;99697.78;6266245;22;20044;-75
2022/11/23 05:56:18;;;;;;;9.05;4.30;;;;;;;7.28;100.00;99704.56;6253974;22;20103;-75
2022/11/23 05:58:59;;;;;;;8.20;4.22;;;;;;;7.28;100.00;99701.91;6254366;22;20016;-76
2022/11/23 06:01:26;;;;;;;9.23;4.57;;;;;;;7.28;100.00;99699.25;6254148;22;20431;-75
2022/11/23 06:03:56;;;;;;;10.65;4.18;;;;;;;7.30;100.00;99702.19;6254557;22;20441;-75
2022/11/23 06:06:24;;;;;;;8.60;4.13;;;;;;;7.30;100.00;99697.63;6254162;22;20023;-76
2022/11/23 06:08:50;;;;;;;15.13;4.72;;;;;;;7.30;100.00;99697.63;6253789;22;20016;-75
2022/11/23 06:11:18;;;;;;;11.35;5.00;;;;;;;7.30;100.00;99702.94;6253809;22;20020;-76
2022/11/23 06:13:46;;;;;;;11.70;4.53;;;;;;;7.30;100.00;99705.59;6254460;22;20082;-76
2022/11/23 06:16:14;;;;;;;12.55;4.65;;;;;;;7.31;100.00;99699.13;6254066;22;20079;-75
2022/11/23 06:18:51;;;;;;;10.38;4.20;;;;;;;7.32;100.00;99699.84;6254262;22;20012;-75
2022/11/23 06:21:18;;;;;;;11.13;4.50;;;;;;;7.31;100.00;99690.44;6253446;22;20024;-75
2022/11/23 06:23:48;;;;;;;14.20;4.60;;;;;;;7.31;100.00;99691.16;6254339;22;20020;-76
2022/11/23 06:26:15;;;;;;;6.97;4.53;;;;;;;7.31;100.00;99698.38;6254222;22;20092;-75
2022/11/23 06:28:42;;;;;;;12.55;4.28;;;;;;;7.31;100.00;99687.78;6281618;22;20012;-75
2022/11/23 06:31:09;;;;;;;9.95;3.75;;;;;;;7.30;100.00;99694.25;6282484;22;20058;-76
2022/11/23 06:33:36;;;;;;;6.00;3.28;;;;;;;7.30;100.00;99694.25;6255081;22;20023;-75
2022/11/23 06:36:03;;;;;;;12.65;3.88;;;;;;;7.29;100.00;99700.72;6254319;22;20028;-75
2022/11/23 06:38:36;;;;;;;9.63;3.00;;;;;;;7.29;100.00;99703.38;6254688;22;20132;-76
2022/11/23 06:41:09;;;;;;;9.35;3.03;;;;;;;7.30;100.00;99702.94;6254338;22;20520;-75
2022/11/23 06:43:35;;;;;;;12.23;3.28;;;;;;;7.29;100.00;99700.72;6254736;22;20016;-76
2022/11/23 06:46:04;;;;;;;11.65;3.85;;;;;;;7.29;100.00;99700.72;6254629;22;20047;-76
2022/11/23 06:48:32;;;;;;;14.48;3.45;;;;;;;7.26;100.00;99704.25;6254830;22;20020;-76
2022/11/23 06:51:00;;;;;;;15.25;3.05;;;;;;;7.25;100.00;99698.22;6253924;22;20022;-75
2022/11/23 06:53:29;;;;;;;13.43;3.30;;;;;;;7.25;100.00;99706.16;6254728;22;20429;-76
2022/11/23 06:56:00;;;;;;;;;;;;;;;7.24;100.00;99706.59;6255194;22;20012;-75
2022/11/23 06:58:29;;;;;;;7.85;2.70;;;;;;;7.21;100.00;99702.94;6255016;22;19923;-77
2022/11/23 07:01:01;;;;;;;8.15;2.50;;;;;;;7.18;100.00;99717.06;6254247;22;20464;-76
2022/11/23 07:03:34;;;;;;;8.88;3.17;;;;;;;7.15;100.00;99717.22;6254645;22;20016;-76
2022/11/23 07:06:08;;;;;;;6.13;2.60;;;;;;;7.14;100.00;99721.03;6230566;22;20539;-77
2022/11/23 07:08:42;;;;;;;9.73;3.20;;;;;;;7.12;100.00;99718.09;6253868;22;20114;-77
2022/11/23 07:11:34;;;;;;;10.25;2.83;;;;;;;7.11;100.00;99724.56;6275650;22;20028;-76
2022/11/23 07:14:01;;;;;;;7.28;2.60;;;;;;;7.09;100.00;99721.59;6254552;22;20461;-77
2022/11/23 07:16:29;;;;;;;10.65;3.45;;;;;;;7.06;100.00;99728.50;6254285;22;20013;-76
2022/11/23 07:18:56;;;;;;;11.93;3.28;;;;;;;7.01;100.00;99729.81;6254313;22;20020;-78
2022/11/23 07:21:23;;;;;;;6.65;2.63;;;;;;;6.95;100.00;99731.56;6253885;22;20369;-77
2022/11/23 07:23:49;;;;;;;12.95;2.88;;;;;;;6.90;100.00;99734.78;6254551;22;20491;-76
2022/11/23 07:26:16;;;;;;;7.30;2.90;;;;;;;6.86;100.00;99736.84;6254598;22;20016;-77
2022/11/23 07:28:43;;;;;;;13.20;2.33;;;;;;;6.83;100.00;99735.06;6254612;22;20020;-76
2022/11/23 07:31:10;;;;;;;5.85;2.30;;;;;;;6.79;100.00;99744.34;6254594;22;20027;-76
2022/11/23 07:33:37;;;;;;;6.68;2.50;;;;;;;6.78;100.00;99750.81;6254414;22;20377;-76
2022/11/23 07:36:04;;;;;;;9.40;2.42;;;;;;;6.78;100.00;99754.19;6254035;22;20023;-76
2022/11/23 07:38:30;;;;;;;11.50;2.55;;;;;;;6.79;100.00;99754.91;6281807;22;20013;-78
2022/11/23 07:41:00;;;;;;;12.27;2.20;;;;;;;6.82;100.00;99760.06;6254124;22;20473;-77
2022/11/23 07:43:46;;;;;;;10.35;2.42;;;;;;;6.85;100.00;99763.72;6254744;22;20016;-77
2022/11/23 07:46:12;;;;;;;6.35;1.98;;;;;;;6.86;100.00;99758.00;6254523;22;20361;-76
2022/11/23 07:48:39;;;;;;;6.97;2.50;;;;;;;6.89;100.00;99764.34;6281366;22;20012;-76
2022/11/23 07:51:05;;;;;;;8.88;2.33;;;;;;;6.91;100.00;99765.38;6281515;22;20066;-76
2022/11/23 07:53:32;;;;;;;5.18;2.17;;;;;;;6.93;100.00;99773.63;6281542;22;20393;-76
2022/11/23 07:55:58;;;;;;;7.38;2.40;;;;;;;6.96;100.00;99772.75;6281637;22;20474;-76
2022/11/23 07:58:24;;;;;;;6.35;2.13;;;;;;;6.99;100.00;99779.06;6281414;22;20449;-76
2022/11/23 08:00:51;;;;;;;14.50;2.35;;;;;;;7.00;100.00;99778.63;6281769;22;20410;-77
2022/11/23 08:03:18;;;;;;;13.00;1.95;;;;;;;7.02;100.00;99786.13;6280986;22;20074;-76
2022/11/23 08:05:54;;;;;;;12.85;2.63;;;;;;;7.05;100.00;99787.16;6281357;22;20019;-77
2022/11/23 08:08:20;;;;;;;8.25;2.10;;;;;;;7.07;100.00;99795.41;6281129;22;20096;-77
2022/11/23 08:10:47;;;;;;;15.32;2.35;;;;;;;7.09;100.00;99791.16;6281520;22;20018;-76
2022/11/23 08:13:19;;;;;;;15.85;2.42;;;;;;;7.12;100.00;99787.63;6281514;22;20016;-76
2022/11/23 08:15:46;;;;;;;7.60;2.33;;;;;;;7.14;100.00;99784.56;6281662;22;20452;-76
2022/11/23 08:18:19;;;;;;;6.68;1.75;;;;;;;7.17;100.00;99786.31;6280828;22;20016;-76
2022/11/23 08:20:46;;;;;;;6.05;1.92;;;;;;;7.18;100.00;99787.78;6281345;22;20020;-75
2022/11/23 08:23:12;;;;;;;7.95;2.22;;;;;;;7.18;100.00;99793.81;6281117;22;20429;-75
2022/11/23 08:25:39;;;;;;;15.88;2.42;;;;;;;7.23;99.64;99792.50;6281251;22;20016;-76
2022/11/23 08:28:05;;;;;;;8.07;2.30;;;;;;;7.27;100.00;99795.72;6253599;22;20009;-75
2022/11/23 08:30:33;;;;;;;9.45;2.08;;;;;;;7.30;100.00;99797.50;6281219;22;20024;-76
2022/11/23 08:33:04;;;;;;;11.85;2.10;;;;;;;7.32;100.00;99790.59;6280838;22;20016;-75
2022/11/23 08:35:39;;;;;;;15.83;2.17;;;;;;;7.35;99.72;99794.28;6281381;22;20016;-75
2022/11/23 08:38:07;;;;;;;9.80;2.05;;;;;;;7.38;99.61;99796.06;6279753;22;20386;-76
2022/11/23 08:40:34;;;;;;;11.68;2.47;;;;;;;7.43;99.61;99792.81;6280130;22;20028;-78
2022/11/23 08:43:01;;;;;;;9.93;2.67;;;;;;;7.51;99.14;99796.66;6280621;22;20047;-76
2022/11/23 08:45:27;;;;;;;10.50;2.28;;;;;;;7.53;99.29;99789.00;6253499;22;20051;-76
2022/11/23 08:47:59;;;;;;;15.18;2.35;;;;;;;7.56;99.02;99792.69;6280078;22;20040;-76
2022/11/23 08:50:28;;;;;;;17.45;3.20;;;;;;;7.61;98.99;99790.16;6280794;22;20017;-76
2022/11/23 08:52:58;;;;;;;8.10;2.60;;;;;;;7.68;98.89;99791.78;6280542;22;20016;-78
2022/11/23 08:55:26;;;;;;;13.00;2.25;;;;;;;7.70;97.82;99792.09;6253779;22;20567;-78
2022/11/23 08:57:57;;;;;;;11.48;2.95;;;;;;;7.69;97.75;99791.34;6280622;22;20433;-77
2022/11/23 09:00:24;;;;;;;8.82;2.28;;;;;;;7.73;97.53;99791.22;6281085;22;20052;-76
2022/11/23 09:02:50;;;;;;;7.38;2.05;;;;;;;7.72;97.13;99794.28;6279973;22;20091;-77
2022/11/23 09:05:17;;;;;;;11.10;2.50;;;;;;;7.74;97.06;99792.69;6280754;22;20016;-77
2022/11/23 09:07:43;;;;;;;13.55;2.67;;;;;;;7.76;96.36;99797.53;6280875;22;20044;-76
2022/11/23 09:10:10;;;;;;;19.67;3.22;;;;;;;7.79;96.48;99794.75;6280578;22;20027;-75
2022/11/23 09:12:44;;;;;;;11.13;2.00;;;;;;;7.83;95.49;99789.28;6280353;22;20070;-75
2022/11/23 09:15:10;;;;;;;9.73;2.50;;;;;;;7.82;94.91;99785.91;6280931;22;20044;-75
2022/11/23 09:17:37;;;;;;;13.60;2.22;;;;;;;7.85;95.42;99786.94;6280423;22;20470;-75
2022/11/23 09:20:04;;;;;;;13.52;2.38;;;;;;;7.88;95.02;99786.78;6282034;22;20095;-75
2022/11/23 09:22:30;;;;;;;9.57;2.53;;;;;;;7.91;94.15;99779.88;6281818;22;20460;-75
2022/11/23 09:24:57;;;;;;;9.48;2.53;;;;;;;7.96;94.24;99784.59;6281852;22;20497;-76
2022/11/23 09:27:23;;;;;;;10.27;2.28;;;;;;;8.02;93.63;99782.78;6282100;22;20017;-77
2022/11/23 09:29:50;;;;;;;10.23;2.22;;;;;;;8.07;92.60;99786.75;6281538;22;20048;-76
2022/11/23 09:32:16;;;;;;;7.78;1.90;;;;;;;8.08;92.47;99770.41;6255234;22;20087;-75
2022/11/23 09:34:44;;;;;;;9.52;2.40;;;;;;;8.07;92.18;99776.88;6281913;22;20020;-75
2022/11/23 09:37:11;;;;;;;9.77;2.20;;;;;;;8.12;91.87;99771.00;6254435;22;20016;-75
2022/11/23 09:39:38;;;;;;;15.48;2.60;;;;;;;8.23;90.63;99779.22;6281474;22;20091;-76
2022/11/23 09:42:12;;;;;;;14.38;2.67;;;;;;;8.28;90.83;99768.00;6282350;22;20079;-76
2022/11/23 09:44:59;;;;;;;11.32;2.22;;;;;;;8.31;90.56;99763.72;6281510;22;20012;-77
2022/11/23 09:47:41;;;;;;;11.07;2.50;;;;;;;8.29;90.62;99763.44;6281995;22;20030;-77
2022/11/23 09:50:21;;;;;;;10.32;2.05;;;;;;;8.26;89.88;99754.47;6281932;22;20519;-76
2022/11/23 09:52:49;;;;;;;10.45;2.33;;;;;;;8.26;89.89;99754.47;6281741;22;20020;-79
2022/11/23 09:55:44;;;;;;;9.25;2.60;;;;;;;8.27;90.60;99753.28;6254774;22;20016;-78
2022/11/23 09:58:21;;;;;;;9.30;2.03;;;;;;;8.24;90.38;99761.41;6281786;22;20508;-79
2022/11/23 10:01:12;;;;;;;7.47;2.17;;;;;;;8.22;90.41;99743.28;6281231;22;20016;-76
2022/11/23 10:03:41;;;;;;;5.95;2.05;;;;;;;8.21;89.31;99735.78;6281819;22;20082;-76
2022/11/23 10:06:22;;;;;;;8.45;1.90;;;;;;;8.18;89.07;99734.00;6281714;22;20017;-77
2022/11/23 10:09:10;;;;;;;10.98;2.13;;;;;;;8.17;88.85;99722.66;6281604;22;20078;-77
2022/11/23 10:12:03;;;;;;;16.35;2.15;;;;;;;8.14;89.50;99728.13;6281943;22;20016;-77
2022/11/23 10:15:00;;;;;;;11.73;2.70;;;;;;;8.13;89.52;99719.44;6281517;22;20016;-77
2022/11/23 10:17:32;;;;;;;8.93;2.05;;;;;;;8.13;88.87;99721.34;6281612;22;20070;-77
2022/11/23 10:20:27;;;;;;;15.70;2.33;;;;;;;8.13;89.15;99719.44;6281837;22;20131;-77
2022/11/23 10:22:59;;;;;;;8.85;2.30;;;;;;;8.12;88.41;99715.31;6281673;22;20062;-77
2022/11/23 10:25:35;;;;;;;;;;;;;;;8.17;89.56;99712.06;6282356;22;20017;-77
2022/11/23 10:28:14;;;;;;;10.43;2.35;;;;;;;8.23;88.66;99717.50;6281610;22;20040;-77
2022/11/23 10:30:41;;;;;;;16.75;2.15;;;;;;;8.24;87.71;99713.66;6281301;22;20382;-77
2022/11/23 10:33:21;;;;;;;7.00;1.95;;;;;;;8.23;88.08;99710.28;6282093;22;20100;-77
2022/11/23 10:35:47;;;;;;;13.88;5.13;;;;;;;8.23;87.46;99710.28;6281861;22;20012;-76
2022/11/23 10:38:18;;;;;;;9.13;1.85;;;;;;;8.30;87.56;99714.53;6254417;22;20539;-77
2022/11/23 10:41:02;;;;;;;15.13;2.28;;;;;;;8.31;88.03;99726.63;6281331;22;20118;-77
2022/11/23 10:43:35;;;;;;;7.75;2.10;;;;;;;8.32;87.24;99726.19;6281616;22;20370;-78
2022/11/23 10:46:24;;;;;;;4.60;1.98;;;;;;;8.36;88.14;99728.69;6282355;22;20412;-78
2022/11/23 10:48:51;;;;;;;8.40;2.30;;;;;;;8.35;86.91;99716.59;6281790;22;20016;-79
2022/11/23 10:51:32;;;;;;;9.40;1.75;;;;;;;8.37;87.48;99716.16;6254690;22;20020;-77
2022/11/23 10:54:04;;;;;;;10.27;2.00;;;;;;;8.32;87.24;99720.88;6281982;22;20016;-78
2022/11/23 10:56:33;;;;;;;7.28;1.80;;;;;;;8.31;86.52;99719.38;6281601;22;20092;-78
2022/11/23 10:58:59;;;;;;;5.65;1.75;;;;;;;8.32;86.36;99723.53;6253925;22;20020;-80
2022/11/23 11:01:28;;;;;;;6.20;2.50;;;;;;;8.38;86.54;99707.03;6281534;22;20094;-77
2022/11/23 11:04:02;;;;;;;10.32;2.55;;;;;;;8.43;86.31;99707.13;6281793;22;20389;-79
2022/11/23 11:06:32;;;;;;;14.02;2.42;;;;;;;8.49;85.48;99707.25;6230205;22;20020;-77
2022/11/23 11:09:02;;;;;;;12.05;2.40;;;;;;;8.50;85.67;99703.41;6281704;22;20036;-80
2022/11/23 11:11:32;;;;;;;12.48;2.50;;;;;;;8.47;84.87;99704.31;6281294;22;20016;-77
2022/11/23 11:14:15;;;;;;;5.88;1.90;;;;;;;8.46;85.48;99708.88;6281798;22;20075;-76
2022/11/23 11:16:50;;;;;;;7.53;1.98;;;;;;;8.47;85.78;99720.22;6281615;22;20070;-77
2022/11/23 11:19:33;;;;;;;9.13;2.35;;;;;;;8.48;85.63;99717.13;6281753;22;20111;-77
2022/11/23 11:22:21;;;;;;;5.78;1.73;;;;;;;8.52;85.01;99706.34;6281767;22;20123;-76
2022/11/23 11:24:48;;;;;;;7.00;1.75;;;;;;;8.57;84.55;99711.06;6281781;22;20087;-78
2022/11/23 11:27:19;;;;;;;10.02;1.95;;;;;;;8.58;84.82;99707.22;6253668;22;20020;-77
2022/11/23 11:29:59;;;;;;;6.67;2.17;;;;;;;8.58;85.63;99709.88;6281668;22;20074;-77
2022/11/23 11:32:39;;;;;;;4.32;1.85;;;;;;;8.59;85.19;99706.75;6254162;22;20048;-77
2022/11/23 11:35:25;;;;;;;5.00;1.77;;;;;;;8.58;85.99;99712.50;6281769;22;20472;-78
2022/11/23 11:37:56;;;;;;;8.52;2.25;;;;;;;8.57;85.04;99703.81;6281699;22;20442;-78
2022/11/23 11:40:36;;;;;;;2.63;1.63;;;;;;;8.58;85.04;99701.91;6280773;22;20020;-77
2022/11/23 11:43:24;;;;;;;4.13;1.83;;;;;;;8.60;84.77;99694.97;6281106;22;20020;-77
2022/11/23 11:46:12;;;;;;;6.28;2.05;;;;;;;8.66;84.88;99687.88;6257829;22;20020;-75
2022/11/23 11:49:16;;;;;;;5.03;2.33;;;;;;;8.74;84.49;99682.22;6281516;22;20167;-77
2022/11/23 11:51:49;;;;;;;5.35;1.77;;;;;;;8.83;83.92;99674.19;6281477;22;20012;-77
2022/11/23 11:54:41;;;;;;;7.25;2.15;;;;;;;8.88;83.73;99671.66;6281397;22;20012;-77
2022/11/23 11:57:34;;;;;;;5.57;1.88;;;;;;;8.96;84.11;99669.38;6281139;22;20012;-76
2022/11/23 12:00:04;;;;;;;6.57;2.50;;;;;;;8.95;83.05;99666.00;6265500;22;20024;-77
2022/11/23 12:02:38;;;;;;;7.68;2.15;;;;;;;8.98;82.48;99654.47;6281416;22;20016;-76
2022/11/23 12:05:08;;;;;;;4.55;1.80;;;;;;;8.92;82.87;99658.94;6281563;22;20016;-77
2022/11/23 12:07:57;;;;;;;3.35;1.83;;;;;;;8.90;83.33;99640.06;6281797;22;20020;-76
2022/11/23 12:10:28;;;;;;;4.13;1.75;;;;;;;8.85;83.02;99648.66;6218097;22;20024;-77
2022/11/23 12:12:57;;;;;;;11.52;1.92;;;;;;;8.86;82.95;99644.09;6281279;22;20012;-77
2022/11/23 12:15:42;;;;;;;4.47;1.92;;;;;;;8.85;82.96;99643.34;6281658;22;20098;-77
2022/11/23 12:18:28;;;;;;;8.90;1.85;;;;;;;8.83;83.28;99632.47;6255875;22;20024;-77
2022/11/23 12:21:12;;;;;;;9.90;1.63;;;;;;;8.86;82.74;99630.81;6254600;22;20043;-77
2022/11/23 12:23:52;;;;;;;6.55;1.75;;;;;;;8.86;83.16;99636.13;6281497;22;20086;-77
2022/11/23 12:26:19;;;;;;;4.20;2.10;;;;;;;8.88;82.27;99636.41;6281582;22;20464;-77
2022/11/23 12:29:26;;;;;;;5.03;1.13;;;;;;;8.94;83.53;99630.03;6281412;22;20100;-76
2022/11/23 12:32:18;;;;;;;5.22;1.30;;;;;;;8.98;83.13;99627.94;6127258;23;20452;-77
2022/11/23 12:34:54;;;;;;;;;;;;;;;9.01;85.07;99621.72;6127860;23;20026;-77
2022/11/23 12:37:48;;;;;;;4.13;1.48;;;;;;;9.02;82.80;99620.53;6103035;23;19976;-77
2022/11/23 12:40:52;;;;;;;3.83;1.50;;;;;;;9.05;82.37;99626.84;6126280;23;20038;-77
2022/11/23 12:43:28;;;;;;;3.17;1.23;;;;;;;9.04;81.39;99625.38;6127537;23;20097;-77
2022/11/23 12:46:28;;;;;;;3.78;1.20;;;;;;;9.03;82.69;99624.66;6127672;23;20100;-77
2022/11/23 12:49:28;;;;;;;4.97;1.10;;;;;;;9.06;82.14;99630.25;6127104;23;20090;-77
2022/11/23 12:52:26;;;;;;;5.78;1.48;;;;;;;9.08;81.77;99617.97;6127464;23;20086;-78
2022/11/23 12:55:01;;;;;;;3.53;1.10;;;;;;;9.11;81.00;99613.69;6128083;23;20029;-77
2022/11/23 12:57:39;;;;;;;9.55;1.73;;;;;;;9.12;81.52;99613.22;6129086;23;20056;-77
2022/11/23 13:00:15;;;;;;;6.97;1.67;;;;;;;9.12;81.25;99612.50;6128799;23;20033;-77
2022/11/23 13:03:00;;;;;;;8.85;1.75;;;;;;;9.13;81.38;99613.97;6128978;23;20022;-77
2022/11/23 13:05:48;;;;;;;8.88;1.60;;;;;;;9.13;81.08;99606.72;6128917;23;20023;-78
2022/11/23 13:08:44;;;;;;;6.82;1.60;;;;;;;9.13;81.23;99608.66;6230866;22;20405;-77
2022/11/23 13:11:23;;;;;;;3.15;1.20;;;;;;;9.11;81.16;99605.72;6251679;22;20095;-76